Chile Chico, Chile

10:59 PM CLT on July 10, 2014 (GMT -0400)
Balmaceda (SCBA) Elev 1719 ft | 45.91 °S, 71.69 °W | Change Station

Current weather conditions updated 59 minutes ago

Clear
Clear
27 °F
Feels Like 23 °F
N
4
Wind Variable Wind from West

Tomorrow is forecast to be Warmer than today.

Today
High -- | Low -- °F
--% Chance of Precip.
Yesterday
High -- | Low -- °F
Precip. -- in
8:28 AM 5:16 PM
Waxing Gibbous, 97% visible
Pressure 29.98 in
Visibility -9999.0 miles
Clouds
Windchill 23 °F
Dew Point 25 °F
Humidity 93%
Rainfall 0.00 in
Snow Depth Not available.
UV Not available.
Pollen Not available.
Air Quality Not available.
Flu Activity Not available.
METAR SCBA 110200Z AUTO 26003KT CAVOK M03/M04 Q1015

More Conditions Fewer Conditions

Pressure 29.98 in
Visibility -9999.0 miles
Clouds
Windchill 23 °F
Dew Point 25 °F
Humidity 93%
Rainfall 0.00 in
Snow Depth Not available.
UV Not available.
Pollen Not available.
Air Quality Not available.
Flu Activity Not available.
METAR SCBA 110200Z AUTO 26003KT CAVOK M03/M04 Q1015

More Conditions Fewer Conditions

10-Day Weather Forecast

Almanac

Astronomy

Jul. 10, 2014 Rise Set
Actual Time 8:28 AM CLT 5:16 PM CLT
Civil Twilight 7:54 AM CLT 5:50 PM CLT
Nautical Twilight 7:16 AM CLT 6:28 PM CLT
Astronomical Twilight 6:39 AM CLT 7:04 PM CLT
Moon 3:48 PM CLT (7/10) 6:13 AM CLT (7/10)
Length of Visible Light 9h 56m
Length of Day
8h 47m
Tomorrow will be 1m 25s longer.
Waxing Gibbous, 97% of the Moon is Illuminated
Today
Waxing Gibbous
Jul 12
Full
Jul 18
Last Quarter
Jul 26
New
Aug 3
First Quarter

Today's Extremes

Country Highs Country Lows

Community

WunderPhotos

Upload Photos

1,732,347 photos uploaded!

Nearby

Snow Depth

Not available.

Earthquake Activity

City Distance Mag. Time & Date
No recent earthquake activity has been reported nearby.
Minimum magnitude displayed is 2.5.

Coastal Water Temperatures

Place Temperature
No Stations Reporting

Nearby Weather Stations

There are no personal weather stations in this area.